createdAt,value
2022-12-14T00:01:54.259Z,100143.06
2022-12-14T00:04:22.245Z,100137.66
2022-12-14T00:06:49.962Z,100138.97
2022-12-14T00:09:18.058Z,100132.16
2022-12-14T00:11:45.921Z,100135.22
2022-12-14T00:14:13.891Z,100132.81
2022-12-14T00:16:41.598Z,100141.72
2022-12-14T00:19:11.835Z,100151.31
2022-12-14T00:21:39.610Z,100141.19
2022-12-14T00:24:07.632Z,100145.75
2022-12-14T00:26:35.346Z,100147.19
2022-12-14T00:29:03.631Z,100144.81
2022-12-14T00:31:32.667Z,100142.78
2022-12-14T00:34:01.375Z,100147.69
2022-12-14T00:36:31.870Z,100145.97
2022-12-14T00:39:00.427Z,100142.16
2022-12-14T00:41:28.789Z,100142.69
2022-12-14T00:43:57.241Z,100140.38
2022-12-14T00:46:25.365Z,100135.41
2022-12-14T00:48:53.496Z,100132.81
2022-12-14T00:51:22.973Z,100139.72
2022-12-14T00:53:51.001Z,100146.41
2022-12-14T00:56:18.766Z,100146.31
2022-12-14T00:58:53.881Z,100144.25
2022-12-14T01:01:22.407Z,100143.34
2022-12-14T01:03:50.856Z,100144.84
2022-12-14T01:06:23.883Z,100147.09
2022-12-14T01:08:51.920Z,100143.63
2022-12-14T01:11:19.601Z,100142.34
2022-12-14T01:13:49.615Z,100142.94
2022-12-14T01:16:17.814Z,100141.91
2022-12-14T01:18:45.861Z,100142.78
2022-12-14T01:21:19.991Z,100141.41
2022-12-14T01:23:51.256Z,100144.00
2022-12-14T01:26:20.098Z,100143.00
2022-12-14T01:28:52.429Z,100135.13
2022-12-14T01:31:23.170Z,100146.97
2022-12-14T01:33:51.198Z,100142.81
2022-12-14T01:36:21.924Z,100144.47
2022-12-14T01:38:54.835Z,100142.00
2022-12-14T01:41:39.745Z,100134.47
2022-12-14T01:44:10.855Z,100141.50
2022-12-14T01:46:41.712Z,100133.47
2022-12-14T01:49:28.774Z,100138.41
2022-12-14T01:52:12.509Z,100134.78
2022-12-14T01:54:52.401Z,100146.78
2022-12-14T01:57:26.592Z,100145.06
2022-12-14T02:00:00.916Z,100150.38
2022-12-14T02:02:33.221Z,100152.13
2022-12-14T02:05:02.967Z,100138.66
2022-12-14T02:07:32.137Z,100137.31
2022-12-14T02:10:04.629Z,100140.66
2022-12-14T02:12:48.028Z,100138.00
2022-12-14T02:15:16.575Z,100138.00
2022-12-14T02:17:47.151Z,100135.19
2022-12-14T02:20:16.467Z,100127.34
2022-12-14T02:23:05.035Z,100135.03
2022-12-14T02:25:42.875Z,100138.28
2022-12-14T02:28:22.837Z,100133.22
2022-12-14T02:31:39.962Z,100133.59
2022-12-14T02:34:14.234Z,100144.50
2022-12-14T02:37:04.121Z,100140.09
2022-12-14T02:40:13.164Z,100145.88
2022-12-14T02:42:59.053Z,100146.81
2022-12-14T02:45:37.183Z,100156.94
2022-12-14T02:48:14.047Z,100146.38
2022-12-14T02:50:54.997Z,100150.00
2022-12-14T02:53:36.427Z,100159.03
2022-12-14T02:56:09.511Z,100149.44
2022-12-14T02:58:41.512Z,100148.03
2022-12-14T03:01:14.651Z,100150.38
2022-12-14T03:03:43.232Z,100148.41
2022-12-14T03:06:26.102Z,100151.16
2022-12-14T03:09:05.219Z,100157.09
2022-12-14T03:12:01.153Z,100156.22
2022-12-14T03:14:50.557Z,100150.72
2022-12-14T03:17:24.791Z,100171.41
2022-12-14T03:20:06.394Z,100161.22
2022-12-14T03:22:39.718Z,100157.28
2022-12-14T03:25:16.169Z,100156.38
2022-12-14T03:27:53.595Z,100162.03
2022-12-14T03:30:44.283Z,100144.97
2022-12-14T03:33:17.171Z,100154.25
2022-12-14T03:36:02.337Z,100154.03
2022-12-14T03:38:33.868Z,100151.16
2022-12-14T03:41:14.154Z,100155.19
2022-12-14T03:43:56.826Z,100154.97
2022-12-14T03:46:51.163Z,100156.56
2022-12-14T03:49:40.600Z,100158.75
2022-12-14T03:52:21.210Z,100160.19
2022-12-14T03:55:11.133Z,100159.16
2022-12-14T03:57:45.037Z,100164.00
2022-12-14T04:00:24.280Z,100166.31
2022-12-14T04:03:07.347Z,100167.59
2022-12-14T04:05:47.061Z,100166.31
2022-12-14T04:08:40.246Z,100167.75
2022-12-14T04:11:37.651Z,100171.66
2022-12-14T04:14:38.853Z,100163.38
2022-12-14T04:17:32.291Z,100163.53
2022-12-14T04:20:09.877Z,100151.78
2022-12-14T04:22:46.366Z,100153.38
2022-12-14T04:25:41.931Z,100147.66
2022-12-14T04:28:53.403Z,100144.63
2022-12-14T04:31:25.703Z,100149.09
2022-12-14T04:33:58.761Z,100141.28
2022-12-14T04:36:33.269Z,100154.03
2022-12-14T04:39:08.986Z,100155.41
2022-12-14T04:41:43.654Z,100163.13
2022-12-14T04:44:21.884Z,100161.75
2022-12-14T04:46:53.523Z,100156.75
2022-12-14T04:49:32.145Z,100158.00
2022-12-14T04:52:06.111Z,100164.13
2022-12-14T04:54:45.318Z,100157.34
2022-12-14T04:57:34.237Z,100158.78
2022-12-14T05:00:02.525Z,100158.56
2022-12-14T05:02:57.008Z,100154.03
2022-12-14T05:05:33.968Z,100154.88
2022-12-14T05:08:11.877Z,100143.75
2022-12-14T05:10:44.789Z,100139.44
2022-12-14T05:13:19.706Z,100135.16
2022-12-14T05:15:50.312Z,100141.44
2022-12-14T05:18:18.892Z,100146.75
2022-12-14T05:20:47.814Z,100132.91
2022-12-14T05:23:16.788Z,100138.84
2022-12-14T05:25:44.540Z,100140.00
2022-12-14T05:28:17.318Z,100144.38
2022-12-14T05:30:47.088Z,100138.25
2022-12-14T05:33:21.037Z,100142.56
2022-12-14T05:35:48.751Z,100144.25
2022-12-14T05:38:16.700Z,100147.72
2022-12-14T05:40:44.452Z,100147.84
2022-12-14T05:43:13.157Z,100144.38
2022-12-14T05:45:40.955Z,100150.22
2022-12-14T05:48:08.904Z,100153.19
2022-12-14T05:50:36.670Z,100153.56
2022-12-14T05:53:04.645Z,100164.09
2022-12-14T05:55:32.376Z,100160.34
2022-12-14T05:58:00.290Z,100156.19
2022-12-14T06:00:27.983Z,100162.53
2022-12-14T06:02:56.056Z,100149.41
2022-12-14T06:05:24.034Z,100158.75
2022-12-14T06:07:51.983Z,100162.75
2022-12-14T06:10:19.622Z,100172.06
2022-12-14T06:12:47.567Z,100175.16
2022-12-14T06:15:15.407Z,100171.59
2022-12-14T06:17:47.387Z,100171.09
2022-12-14T06:20:15.348Z,100173.81
2022-12-14T06:22:47.574Z,100172.34
2022-12-14T06:25:16.027Z,100168.78
2022-12-14T06:27:43.956Z,100166.47
2022-12-14T06:30:12.377Z,100168.75
2022-12-14T06:32:40.441Z,100158.63
2022-12-14T06:35:08.745Z,100165.22
2022-12-14T06:37:36.791Z,100175.72
2022-12-14T06:40:05.017Z,100169.47
2022-12-14T06:42:32.980Z,100165.19
2022-12-14T06:45:00.693Z,100160.00
2022-12-14T06:47:28.739Z,100168.78
2022-12-14T06:49:56.391Z,100166.53
2022-12-14T06:52:26.873Z,100172.63
2022-12-14T06:54:55.125Z,100177.59
2022-12-14T06:57:23.168Z,100172.25
2022-12-14T06:59:51.049Z,100176.78
2022-12-14T07:02:19.145Z,100172.84
2022-12-14T07:04:47.035Z,100172.38
2022-12-14T07:07:15.025Z,100164.78
2022-12-14T07:09:42.688Z,100163.97
2022-12-14T07:12:10.644Z,100173.22
2022-12-14T07:14:38.279Z,100175.97
2022-12-14T07:17:06.292Z,100173.19
2022-12-14T07:19:34.056Z,100175.06
2022-12-14T07:22:04.242Z,100173.72
2022-12-14T07:24:32.110Z,100182.44
2022-12-14T07:27:00.467Z,100183.84
2022-12-14T07:29:34.141Z,100186.44
2022-12-14T07:32:03.293Z,100187.75
2022-12-14T07:34:31.099Z,100185.28
2022-12-14T07:36:59.417Z,100181.47
2022-12-14T07:39:27.195Z,100178.63
2022-12-14T07:41:55.359Z,100177.31
2022-12-14T07:44:23.099Z,100185.50
2022-12-14T07:46:51.163Z,100180.53
2022-12-14T07:49:18.928Z,100183.91
2022-12-14T07:51:47.068Z,100175.78
2022-12-14T07:54:15.015Z,100179.56
2022-12-14T07:56:44.737Z,100171.75
2022-12-14T07:59:15.408Z,100170.34
2022-12-14T08:01:43.956Z,100161.88
2022-12-14T08:04:15.267Z,100172.84
2022-12-14T08:06:43.699Z,100173.00
2022-12-14T08:09:12.798Z,100176.59
2022-12-14T08:11:41.215Z,100176.50
2022-12-14T08:14:17.416Z,100167.09
2022-12-14T08:16:47.006Z,100166.97
2022-12-14T08:19:15.320Z,100180.31
2022-12-14T08:21:45.398Z,100176.56
2022-12-14T08:24:14.625Z,100167.88
2022-12-14T08:26:42.812Z,100160.59
2022-12-14T08:29:15.467Z,100169.13
2022-12-14T08:31:44.083Z,100164.66
2022-12-14T08:34:12.049Z,100168.25
2022-12-14T08:53:54.655Z,100168.19
2022-12-14T08:56:25.570Z,100165.88
2022-12-14T08:58:53.843Z,100157.59
2022-12-14T09:01:30.349Z,100166.88
2022-12-14T09:04:07.852Z,100167.16
2022-12-14T09:06:38.597Z,100165.22
2022-12-14T09:09:15.538Z,100166.66
2022-12-14T09:11:45.506Z,100158.34
2022-12-14T09:14:13.668Z,100159.38
2022-12-14T09:16:41.963Z,100153.41
2022-12-14T09:19:09.851Z,100149.06
2022-12-14T09:21:38.560Z,100153.38
2022-12-14T09:24:07.142Z,100141.34
2022-12-14T09:26:35.176Z,100143.06
2022-12-14T09:29:02.999Z,100142.16
2022-12-14T09:31:31.022Z,100140.38
2022-12-14T09:33:59.636Z,100137.72
2022-12-14T09:36:28.930Z,100131.78
2022-12-14T09:38:57.945Z,100130.06
2022-12-14T09:41:35.392Z,100124.72
2022-12-14T09:44:38.638Z,100121.06
2022-12-14T09:47:10.833Z,100112.44
2022-12-14T09:49:47.449Z,100121.97
2022-12-14T09:52:39.084Z,100118.69
2022-12-14T09:55:39.267Z,100120.91
2022-12-14T09:58:13.964Z,100105.22
2022-12-14T10:01:11.279Z,100105.34
2022-12-14T10:04:06.505Z,100109.94
2022-12-14T10:06:39.445Z,100094.44
2022-12-14T10:09:30.442Z,100098.72
2022-12-14T10:12:32.501Z,100100.53
2022-12-14T10:15:19.228Z,100097.94
2022-12-14T10:18:01.938Z,100093.72
2022-12-14T10:20:42.519Z,100089.47
2022-12-14T10:23:21.098Z,100082.56
2022-12-14T10:26:07.977Z,100070.66
2022-12-14T10:28:38.879Z,100068.94
2022-12-14T10:31:12.040Z,100067.25
2022-12-14T10:33:45.021Z,100069.81
2022-12-14T10:36:30.784Z,100062.22
2022-12-14T10:39:01.908Z,100059.69
2022-12-14T10:42:01.562Z,100058.84
2022-12-14T10:44:53.474Z,100053.72
2022-12-14T10:47:43.808Z,100051.66
2022-12-14T10:50:20.988Z,100037.38
2022-12-14T10:52:54.292Z,100041.00
2022-12-14T10:55:33.676Z,100029.56
2022-12-14T10:58:01.655Z,100032.66
2022-12-14T11:00:29.449Z,100022.25
2022-12-14T11:02:58.947Z,100018.66
2022-12-14T11:05:36.936Z,100023.56
2022-12-14T11:08:08.005Z,100011.69
2022-12-14T11:10:39.681Z,100006.59
2022-12-14T11:13:13.838Z,100008.25
2022-12-14T11:15:46.598Z,99996.22
2022-12-14T11:18:17.532Z,99995.38
2022-12-14T11:21:00.353Z,99990.34
2022-12-14T11:23:38.458Z,99985.94
2022-12-14T11:26:20.861Z,99992.66
2022-12-14T11:28:58.675Z,99981.66
2022-12-14T11:31:40.387Z,99990.81
2022-12-14T11:34:41.366Z,99979.84
2022-12-14T11:37:20.891Z,99972.28
2022-12-14T11:39:59.919Z,99974.91
2022-12-14T11:42:28.338Z,99974.09
2022-12-14T11:45:36.252Z,99963.72
2022-12-14T11:48:16.046Z,99956.28
2022-12-14T11:50:46.028Z,99958.91
2022-12-14T11:53:17.388Z,99949.97
2022-12-14T11:55:52.442Z,99950.13
2022-12-14T11:58:32.328Z,99949.88
2022-12-14T12:01:05.083Z,99949.97
2022-12-14T12:03:38.089Z,99947.41
2022-12-14T12:06:11.106Z,99937.75
2022-12-14T12:08:41.188Z,99943.09
2022-12-14T12:11:22.701Z,99932.63
2022-12-14T12:14:03.639Z,99933.66
2022-12-14T12:16:33.197Z,99928.50
2022-12-14T12:19:05.201Z,99929.34
2022-12-14T12:21:45.174Z,99920.53
2022-12-14T12:24:38.775Z,99919.22
2022-12-14T12:27:16.596Z,99914.81
2022-12-14T12:30:16.099Z,99910.50
2022-12-14T12:32:50.417Z,99908.53
2022-12-14T12:35:40.001Z,99900.88
2022-12-14T12:38:43.460Z,99903.50
2022-12-14T12:41:44.687Z,99903.19
2022-12-14T12:44:30.084Z,99895.50
2022-12-14T12:47:29.931Z,99894.66
2022-12-14T12:50:14.227Z,99894.50
2022-12-14T12:53:28.835Z,99890.34
2022-12-14T12:56:11.520Z,99888.53
2022-12-14T12:58:40.915Z,99898.00
2022-12-14T13:01:34.601Z,99882.59
2022-12-14T13:04:11.536Z,99883.31
2022-12-14T13:06:41.072Z,99875.78
2022-12-14T13:09:50.064Z,99876.47
2022-12-14T13:12:36.563Z,99874.66
2022-12-14T13:15:14.082Z,99883.31
2022-12-14T13:17:54.410Z,99877.91
2022-12-14T13:20:28.382Z,99878.63
2022-12-14T13:23:05.741Z,99878.59
2022-12-14T13:26:28.103Z,99876.72
2022-12-14T13:29:39.389Z,99872.41
2022-12-14T13:32:18.692Z,99871.38
2022-12-14T13:35:05.700Z,99876.97
2022-12-14T13:37:51.237Z,99864.53
2022-12-14T13:40:37.780Z,99859.19
2022-12-14T13:43:16.002Z,99849.84
2022-12-14T13:45:47.789Z,99842.81
2022-12-14T13:48:25.149Z,99847.16
2022-12-14T13:51:42.085Z,99848.16
2022-12-14T13:54:26.412Z,99846.56
2022-12-14T13:57:06.508Z,99840.63
2022-12-14T13:59:45.073Z,99841.47
2022-12-14T14:02:39.584Z,99836.44
2022-12-14T14:05:18.824Z,99837.16
2022-12-14T14:07:53.780Z,99837.06
2022-12-14T14:10:34.561Z,99828.34
2022-12-14T14:13:27.473Z,99816.13
2022-12-14T14:16:27.994Z,99824.75
2022-12-14T14:19:18.713Z,99825.00
2022-12-14T14:22:26.456Z,99811.31
2022-12-14T14:26:02.499Z,99814.16
2022-12-14T14:28:31.290Z,99807.84
2022-12-14T14:30:59.927Z,99806.13
2022-12-14T14:33:45.510Z,99799.72
2022-12-14T14:36:33.431Z,99810.06
2022-12-14T14:39:18.940Z,99803.56
2022-12-14T14:41:54.526Z,99802.44
2022-12-14T14:44:37.748Z,99794.63
2022-12-14T14:47:15.790Z,99793.53
2022-12-14T14:49:44.429Z,99793.47
2022-12-14T14:52:39.697Z,99786.53
2022-12-14T14:58:37.130Z,99775.03
2022-12-14T15:01:08.066Z,99783.25
2022-12-14T15:04:15.714Z,99781.00
2022-12-14T15:06:51.184Z,99774.22
2022-12-14T15:09:30.686Z,99769.34
2022-12-14T15:12:19.091Z,99767.16
2022-12-14T15:14:53.778Z,99769.72
2022-12-14T15:17:23.948Z,99751.50
2022-12-14T15:19:55.905Z,99754.25
2022-12-14T15:22:30.556Z,99749.06
2022-12-14T15:25:01.439Z,99734.38
2022-12-14T15:27:38.113Z,99741.47
2022-12-14T15:30:12.400Z,99743.50
2022-12-14T15:32:57.299Z,99735.44
2022-12-14T15:35:34.389Z,99723.75
2022-12-14T15:38:07.888Z,99723.06
2022-12-14T15:40:36.104Z,99725.34
2022-12-14T15:43:17.472Z,99722.81
2022-12-14T15:45:48.718Z,99724.22
2022-12-14T15:48:31.116Z,99721.81
2022-12-14T15:51:05.201Z,99716.03
2022-12-14T15:53:51.580Z,99724.13
2022-12-14T15:56:30.497Z,99719.75
2022-12-14T15:59:13.450Z,99712.06
2022-12-14T16:01:47.386Z,99713.78
2022-12-14T16:04:22.903Z,99708.34
2022-12-14T16:07:26.935Z,99704.28
2022-12-14T16:10:02.037Z,99702.25
2022-12-14T16:12:45.441Z,99691.91
2022-12-14T16:15:27.545Z,99662.66
2022-12-14T16:18:02.711Z,99681.50
2022-12-14T16:20:34.025Z,99683.38
2022-12-14T16:23:13.685Z,99682.41
2022-12-14T16:26:02.915Z,99678.72
2022-12-14T16:28:37.798Z,99678.53
2022-12-14T16:31:19.981Z,99674.56
2022-12-14T16:34:06.064Z,99675.50
2022-12-14T16:36:36.870Z,99665.31
2022-12-14T16:39:15.207Z,99663.72
2022-12-14T16:41:52.060Z,99670.41
2022-12-14T16:44:23.997Z,99668.75
2022-12-14T16:47:11.941Z,99666.53
2022-12-14T16:49:42.081Z,99656.28
2022-12-14T16:52:26.940Z,99650.41
2022-12-14T16:55:17.084Z,99654.00
2022-12-14T16:57:58.828Z,99651.06
2022-12-14T17:00:30.031Z,99650.22
2022-12-14T17:03:03.962Z,99651.38
2022-12-14T17:05:39.789Z,99647.44
2022-12-14T17:08:08.684Z,99642.19
2022-12-14T17:10:38.835Z,99647.91
2022-12-14T17:13:06.573Z,99643.66
2022-12-14T17:15:35.730Z,99643.47
2022-12-14T17:18:07.176Z,99639.97
2022-12-14T17:20:39.426Z,99629.38
2022-12-14T17:23:14.872Z,99591.66
2022-12-14T17:25:46.305Z,99626.94
2022-12-14T17:28:34.799Z,99623.63
2022-12-14T17:31:03.509Z,99616.41
2022-12-14T17:33:32.408Z,99616.75
2022-12-14T17:36:00.717Z,99612.69
2022-12-14T17:38:28.425Z,99607.47
2022-12-14T17:40:56.663Z,99594.84
2022-12-14T17:43:27.658Z,99595.66
2022-12-14T17:45:56.668Z,99593.78
2022-12-14T17:48:24.457Z,99585.53
2022-12-14T17:50:52.442Z,99588.97
2022-12-14T17:53:28.040Z,99570.25
2022-12-14T17:55:56.317Z,99574.50
2022-12-14T17:58:24.090Z,99574.56
2022-12-14T18:01:01.463Z,99546.13
2022-12-14T18:03:36.802Z,99553.94
2022-12-14T18:06:05.564Z,99557.63
2022-12-14T18:08:33.391Z,99547.53
2022-12-14T18:11:10.224Z,99546.16
2022-12-14T18:13:42.184Z,99550.50
2022-12-14T18:16:15.973Z,99544.41
2022-12-14T18:18:45.950Z,99547.00
2022-12-14T18:21:18.401Z,99542.09
2022-12-14T18:23:47.667Z,99543.53
2022-12-14T18:26:22.187Z,99536.09
2022-12-14T18:28:52.036Z,99536.78
2022-12-14T18:31:27.222Z,99530.88
2022-12-14T18:33:55.480Z,99539.47
2022-12-14T18:36:23.847Z,99524.19
2022-12-14T18:38:52.202Z,99538.03
2022-12-14T18:41:24.244Z,99537.91
2022-12-14T18:43:52.670Z,99532.81
2022-12-14T18:46:20.839Z,99521.19
2022-12-14T18:48:48.614Z,99535.84
2022-12-14T18:51:26.710Z,99522.00
2022-12-14T18:53:56.657Z,99521.91
2022-12-14T18:56:28.114Z,99512.63
2022-12-14T18:58:56.656Z,99508.31
2022-12-14T19:01:25.667Z,99509.47
2022-12-14T19:03:53.626Z,99503.50
2022-12-14T19:09:14.260Z,99500.94
2022-12-14T19:11:42.608Z,99500.28
2022-12-14T19:14:11.273Z,99502.66
2022-12-14T19:16:39.748Z,99507.75
2022-12-14T19:19:07.466Z,99506.09
2022-12-14T19:21:35.540Z,99514.69
2022-12-14T19:24:03.422Z,99513.09
2022-12-14T19:26:31.785Z,99512.16
2022-12-14T19:28:59.557Z,99508.72
2022-12-14T19:31:27.625Z,99507.19
2022-12-14T19:33:55.931Z,99506.53
2022-12-14T19:36:24.682Z,99510.66
2022-12-14T19:38:52.567Z,99503.09
2022-12-14T19:41:21.493Z,99511.66
2022-12-14T19:43:49.609Z,99498.09
2022-12-14T19:46:18.325Z,99512.53
2022-12-14T19:48:46.624Z,99502.38
2022-12-14T19:51:14.962Z,99498.16
2022-12-14T19:53:44.877Z,99493.97
2022-12-14T19:56:16.937Z,99501.56
2022-12-14T19:58:45.148Z,99496.59
2022-12-14T20:01:16.441Z,99499.16
2022-12-14T20:03:44.657Z,99491.31
2022-12-14T20:06:12.891Z,99477.75
2022-12-14T20:08:40.682Z,99480.44
2022-12-14T20:11:11.141Z,99483.03
2022-12-14T20:13:39.250Z,99484.75
2022-12-14T20:16:07.595Z,99472.00
2022-12-14T20:18:35.375Z,99474.56
2022-12-14T20:21:07.066Z,99467.88
2022-12-14T20:23:36.640Z,99466.00
2022-12-14T20:26:10.862Z,99451.56
2022-12-14T20:28:38.807Z,99452.44
2022-12-14T20:31:08.753Z,99445.56
2022-12-14T20:33:37.304Z,99426.75
2022-12-14T20:36:05.956Z,99419.06
2022-12-14T20:38:33.862Z,99409.75
2022-12-14T20:41:11.033Z,99413.22
2022-12-14T20:43:41.590Z,99412.97
2022-12-14T20:46:43.517Z,99413.94
2022-12-14T20:49:22.586Z,99416.53
2022-12-14T20:51:50.668Z,99413.16
2022-12-14T20:54:19.905Z,99408.03
2022-12-14T20:56:49.628Z,99416.59
2022-12-14T20:59:17.886Z,99415.00
2022-12-14T21:01:51.677Z,99414.09
2022-12-14T21:04:21.593Z,99403.06
2022-12-14T21:06:49.701Z,99391.91
2022-12-14T21:09:17.483Z,99389.53
2022-12-14T21:12:08.639Z,99388.66
2022-12-14T21:14:42.570Z,99376.69
2022-12-14T21:17:11.351Z,99374.16
2022-12-14T21:19:39.714Z,99386.16
2022-12-14T21:22:11.368Z,99375.94
2022-12-14T21:27:30.233Z,99367.44
2022-12-14T21:29:58.090Z,99370.91
2022-12-14T21:32:26.612Z,99351.28
2022-12-14T21:34:54.401Z,99341.97
2022-12-14T21:37:23.345Z,99355.66
2022-12-14T21:39:54.996Z,99351.38
2022-12-14T21:42:24.820Z,99346.09
2022-12-14T21:44:53.742Z,99343.53
2022-12-14T21:47:25.930Z,99341.91
2022-12-14T21:49:54.459Z,99344.41
2022-12-14T21:52:25.354Z,99329.25
2022-12-14T21:54:53.308Z,99332.56
2022-12-14T21:57:42.580Z,99316.41
2022-12-14T22:00:11.537Z,99316.50
2022-12-14T22:02:42.949Z,99316.53
2022-12-14T22:05:11.586Z,99312.28
2022-12-14T22:07:39.659Z,99305.38
2022-12-14T22:10:07.769Z,99302.03
2022-12-14T22:12:35.824Z,99305.34
2022-12-14T22:15:03.889Z,99303.72
2022-12-14T22:17:31.909Z,99300.34
2022-12-14T22:19:59.840Z,99290.09
2022-12-14T22:22:27.813Z,99292.66
2022-12-14T22:24:55.566Z,99287.56
2022-12-14T22:27:23.557Z,99294.38
2022-12-14T22:29:51.313Z,99287.56
2022-12-14T22:32:19.332Z,99281.59
2022-12-14T22:34:47.148Z,99287.53
2022-12-14T22:37:16.816Z,99291.84
2022-12-14T22:39:48.146Z,99281.63
2022-12-14T22:42:16.672Z,99273.91
2022-12-14T22:44:44.459Z,99273.09
2022-12-14T22:47:12.520Z,99262.00
2022-12-14T22:49:40.273Z,99260.28
2022-12-14T22:52:08.293Z,99249.25
2022-12-14T22:54:37.989Z,99249.28
2022-12-14T22:57:12.205Z,99257.78
2022-12-14T22:59:48.491Z,99259.53
2022-12-14T23:02:16.772Z,99252.66
2022-12-14T23:04:44.949Z,99250.16
2022-12-14T23:07:12.983Z,99245.06
2022-12-14T23:09:59.132Z,99243.38
2022-12-14T23:12:45.748Z,99234.88
2022-12-14T23:15:32.210Z,99224.59
2022-12-14T23:18:23.821Z,99245.00
2022-12-14T23:21:10.527Z,99244.22
2022-12-14T23:23:59.033Z,99231.41
2022-12-14T23:26:45.299Z,99232.22
2022-12-14T23:29:32.229Z,99226.28
2022-12-14T23:32:18.512Z,99219.47
2022-12-14T23:35:05.174Z,99214.38
2022-12-14T23:37:51.659Z,99223.66
2022-12-14T23:40:38.246Z,99212.63
2022-12-14T23:43:33.070Z,99204.16
2022-12-14T23:46:21.012Z,99201.56
2022-12-14T23:49:13.543Z,99195.59
2022-12-14T23:52:02.539Z,99186.22
2022-12-14T23:54:49.031Z,99183.59
2022-12-14T23:57:35.965Z,99197.31
